createdAt,value
2023-02-19T00:01:32.061Z,22.50
2023-02-19T00:04:07.639Z,19.30
2023-02-19T00:06:35.915Z,20.30
2023-02-19T00:09:03.530Z,24.10
2023-02-19T00:11:32.688Z,23.00
2023-02-19T00:14:00.961Z,24.40
2023-02-19T00:16:49.615Z,21.80
2023-02-19T00:19:18.680Z,23.40
2023-02-19T00:21:45.621Z,21.70
2023-02-19T00:24:13.565Z,24.50
2023-02-19T00:26:41.096Z,26.40
2023-02-19T00:29:08.038Z,25.00
2023-02-19T00:31:37.909Z,22.60
2023-02-19T00:34:06.462Z,21.60
2023-02-19T00:36:36.248Z,25.50
2023-02-19T00:39:04.747Z,21.90
2023-02-19T00:41:31.942Z,28.20
2023-02-19T00:44:00.721Z,28.10
2023-02-19T00:46:34.535Z,26.90
2023-02-19T00:49:01.816Z,23.20
2023-02-19T00:51:34.124Z,20.30
2023-02-19T00:54:01.283Z,24.20
2023-02-19T00:56:28.638Z,25.90
2023-02-19T00:58:56.520Z,24.30
2023-02-19T01:01:24.060Z,28.10
2023-02-19T01:03:50.938Z,20.90
2023-02-19T01:06:19.982Z,21.00
2023-02-19T01:08:49.035Z,21.00
2023-02-19T01:11:16.996Z,22.20
2023-02-19T01:13:44.177Z,21.20
2023-02-19T01:16:13.777Z,20.00
2023-02-19T01:18:43.185Z,21.30
2023-02-19T01:21:14.607Z,21.20
2023-02-19T01:23:45.274Z,21.60
2023-02-19T01:26:20.227Z,20.90
2023-02-19T01:28:48.371Z,20.20
2023-02-19T01:31:20.921Z,23.20
2023-02-19T01:33:49.976Z,23.50
2023-02-19T01:36:17.001Z,21.10
2023-02-19T01:38:44.126Z,20.00
2023-02-19T01:41:14.578Z,16.70
2023-02-19T01:44:13.852Z,24.20
2023-02-19T01:46:42.315Z,20.10
2023-02-19T01:49:19.736Z,18.40
2023-02-19T01:51:49.762Z,18.60
2023-02-19T01:54:18.222Z,18.40
2023-02-19T01:56:46.403Z,24.10
2023-02-19T01:59:13.374Z,21.20
2023-02-19T02:01:40.343Z,22.60
2023-02-19T02:04:11.016Z,19.00
2023-02-19T02:06:57.689Z,17.80
2023-02-19T02:09:46.768Z,19.80
2023-02-19T02:12:14.154Z,19.20
2023-02-19T02:14:47.239Z,20.30
2023-02-19T02:17:16.963Z,20.30
2023-02-19T02:20:03.584Z,20.60
2023-02-19T02:22:36.724Z,16.70
2023-02-19T02:25:41.553Z,18.40
2023-02-19T02:28:13.729Z,16.80
2023-02-19T02:30:59.078Z,20.70
2023-02-19T02:33:39.673Z,23.10
2023-02-19T02:36:12.982Z,17.60
2023-02-19T02:38:44.416Z,17.70
2023-02-19T02:41:12.661Z,19.10
2023-02-19T02:43:39.737Z,18.70
2023-02-19T02:46:07.060Z,20.10
2023-02-19T02:48:39.391Z,17.90
2023-02-19T02:51:20.293Z,18.70
2023-02-19T02:54:23.152Z,14.40
2023-02-19T02:56:50.646Z,14.60
2023-02-19T02:59:20.180Z,13.60
2023-02-19T03:02:10.418Z,16.70
2023-02-19T03:05:14.730Z,15.20
2023-02-19T03:07:41.766Z,14.90
2023-02-19T03:10:11.517Z,13.30
2023-02-19T03:12:59.240Z,15.70
2023-02-19T03:15:48.485Z,19.50
2023-02-19T03:18:35.772Z,14.00
2023-02-19T03:21:02.712Z,18.20
2023-02-19T03:23:50.182Z,14.70
2023-02-19T03:26:17.844Z,15.80
2023-02-19T03:29:05.052Z,14.90
2023-02-19T03:31:33.295Z,15.20
2023-02-19T03:34:04.176Z,17.00
2023-02-19T03:36:37.182Z,18.80
2023-02-19T03:39:07.067Z,18.60
2023-02-19T03:41:43.031Z,15.20
2023-02-19T03:44:25.640Z,16.80
2023-02-19T03:47:17.258Z,15.80
2023-02-19T03:50:01.050Z,18.50
2023-02-19T03:53:02.042Z,13.50
2023-02-19T03:55:34.798Z,13.30
2023-02-19T03:58:26.613Z,11.80
2023-02-19T04:01:02.881Z,10.40
2023-02-19T04:03:56.790Z,10.80
2023-02-19T04:06:28.746Z,14.80
2023-02-19T04:08:59.386Z,11.70
2023-02-19T04:11:27.608Z,11.90
2023-02-19T04:14:16.940Z,9.80
2023-02-19T04:16:48.582Z,10.70
2023-02-19T04:19:20.120Z,9.70
2023-02-19T04:21:47.652Z,11.40
2023-02-19T04:24:21.927Z,11.70
2023-02-19T04:26:49.268Z,11.00
2023-02-19T04:29:16.170Z,10.50
2023-02-19T04:31:43.043Z,9.40
2023-02-19T04:34:09.869Z,12.90
2023-02-19T04:36:36.963Z,10.60
2023-02-19T04:39:08.367Z,8.90
2023-02-19T04:41:35.217Z,11.50
2023-02-19T04:44:01.973Z,8.10
2023-02-19T04:46:28.849Z,8.60
2023-02-19T04:48:56.028Z,10.00
2023-02-19T04:51:23.008Z,9.20
2023-02-19T04:53:52.489Z,10.90
2023-02-19T04:56:19.475Z,8.40
2023-02-19T04:58:46.487Z,11.80
2023-02-19T05:01:14.038Z,11.10
2023-02-19T05:03:41.248Z,12.70
2023-02-19T05:06:10.158Z,9.60
2023-02-19T05:08:37.489Z,10.00
2023-02-19T05:11:06.185Z,10.40
2023-02-19T05:13:33.352Z,11.80
2023-02-19T05:16:10.560Z,10.60
2023-02-19T05:18:37.482Z,10.00
2023-02-19T05:21:04.619Z,9.00
2023-02-19T05:23:31.479Z,11.50
2023-02-19T05:25:58.236Z,10.70
2023-02-19T05:28:34.280Z,12.70
2023-02-19T05:31:06.765Z,13.10
2023-02-19T05:33:33.813Z,12.10
2023-02-19T05:36:08.087Z,10.30
2023-02-19T05:38:35.611Z,17.50
2023-02-19T05:41:12.689Z,15.00
2023-02-19T05:43:41.468Z,11.60
2023-02-19T05:46:11.301Z,11.00
2023-02-19T05:48:38.313Z,12.70
2023-02-19T05:51:07.229Z,12.70
2023-02-19T05:53:34.774Z,13.00
2023-02-19T05:56:01.921Z,13.70
2023-02-19T05:58:29.381Z,11.60
2023-02-19T06:00:58.691Z,9.40
2023-02-19T06:03:25.685Z,11.20
2023-02-19T06:05:52.488Z,12.60
2023-02-19T06:08:19.303Z,12.10
2023-02-19T06:10:46.183Z,13.00
2023-02-19T06:13:13.125Z,11.90
2023-02-19T06:15:40.008Z,11.60
2023-02-19T06:18:06.753Z,15.00
2023-02-19T06:20:33.568Z,13.00
2023-02-19T06:23:02.914Z,11.30
2023-02-19T06:25:29.725Z,10.50
2023-02-19T06:27:56.567Z,13.00
2023-02-19T06:30:23.497Z,13.30
2023-02-19T06:32:54.478Z,12.70
2023-02-19T06:35:21.465Z,13.70
2023-02-19T06:37:49.387Z,12.60
2023-02-19T06:40:16.988Z,12.20
2023-02-19T06:42:43.808Z,14.80
2023-02-19T06:45:10.839Z,11.10
2023-02-19T06:47:38.002Z,10.00
2023-02-19T06:50:07.538Z,14.50
2023-02-19T06:52:34.422Z,15.30
2023-02-19T06:55:01.218Z,14.00
2023-02-19T06:57:28.016Z,11.50
2023-02-19T06:59:54.781Z,13.60
2023-02-19T07:02:21.651Z,10.80
2023-02-19T07:04:48.491Z,10.60
2023-02-19T07:07:15.237Z,17.00
2023-02-19T07:09:44.442Z,15.60
2023-02-19T07:12:11.592Z,15.50
2023-02-19T07:14:38.358Z,14.20
2023-02-19T07:17:07.564Z,14.10
2023-02-19T07:19:34.375Z,13.40
2023-02-19T07:22:01.384Z,12.60
2023-02-19T07:24:28.177Z,14.60
2023-02-19T07:26:55.130Z,14.70
2023-02-19T07:29:21.920Z,14.10
2023-02-19T07:31:48.764Z,13.70
2023-02-19T07:34:15.573Z,10.40
2023-02-19T07:36:42.379Z,14.40
2023-02-19T07:39:12.998Z,13.10
2023-02-19T07:41:42.868Z,19.80
2023-02-19T07:44:16.573Z,12.10
2023-02-19T07:46:44.034Z,13.90
2023-02-19T07:49:10.810Z,14.20
2023-02-19T07:51:40.082Z,10.80
2023-02-19T07:54:08.050Z,12.60
2023-02-19T07:56:34.906Z,13.10
2023-02-19T07:59:01.855Z,11.60
2023-02-19T08:01:47.645Z,10.40
2023-02-19T08:04:15.351Z,14.80
2023-02-19T08:06:42.864Z,13.40
2023-02-19T08:09:12.278Z,11.00
2023-02-19T08:11:57.847Z,11.40
2023-02-19T08:14:28.697Z,11.60
2023-02-19T08:16:56.264Z,14.70
2023-02-19T08:19:23.106Z,12.60
2023-02-19T08:21:50.860Z,11.20
2023-02-19T08:24:19.956Z,12.60
2023-02-19T08:26:46.805Z,12.40
2023-02-19T08:29:13.758Z,15.20
2023-02-19T08:31:40.670Z,14.40
2023-02-19T08:34:07.880Z,19.60
2023-02-19T08:36:34.675Z,14.30
2023-02-19T08:39:01.550Z,14.80
2023-02-19T08:41:28.396Z,11.10
2023-02-19T08:43:58.018Z,10.70
2023-02-19T08:46:27.019Z,13.30
2023-02-19T08:48:53.859Z,16.90
2023-02-19T08:51:20.813Z,11.90
2023-02-19T08:53:47.884Z,13.40
2023-02-19T08:56:16.642Z,13.20
2023-02-19T08:58:44.223Z,12.50
2023-02-19T09:01:14.004Z,12.90
2023-02-19T09:03:41.994Z,15.50
2023-02-19T09:06:15.908Z,15.00
2023-02-19T09:08:42.744Z,13.30
2023-02-19T09:11:12.885Z,11.70
2023-02-19T09:13:40.137Z,13.60
2023-02-19T09:16:07.462Z,14.80
2023-02-19T09:18:34.844Z,15.10
2023-02-19T09:21:04.698Z,15.60
2023-02-19T09:23:38.063Z,14.00
2023-02-19T09:26:07.661Z,12.30
2023-02-19T09:28:34.729Z,13.90
2023-02-19T09:31:06.456Z,13.50
2023-02-19T09:33:35.851Z,13.80
2023-02-19T09:36:03.966Z,16.90
2023-02-19T09:38:31.130Z,15.00
2023-02-19T09:40:59.162Z,13.30
2023-02-19T09:43:28.290Z,12.90
2023-02-19T09:46:02.851Z,9.80
2023-02-19T09:50:57.530Z,12.10
2023-02-19T09:53:28.627Z,10.20
2023-02-19T09:55:55.825Z,10.70
2023-02-19T09:58:27.182Z,14.60
2023-02-19T10:00:55.945Z,12.40
2023-02-19T10:03:32.052Z,10.10
2023-02-19T10:06:05.627Z,15.20
2023-02-19T10:08:34.736Z,10.40
2023-02-19T10:11:06.278Z,10.50
2023-02-19T10:13:38.203Z,11.90
2023-02-19T10:16:07.602Z,13.30
2023-02-19T10:18:41.482Z,10.60
2023-02-19T10:21:12.181Z,12.00
2023-02-19T10:23:42.995Z,12.20
2023-02-19T10:26:13.369Z,16.30
2023-02-19T10:28:43.264Z,16.50
2023-02-19T10:31:22.838Z,14.20
2023-02-19T10:33:55.191Z,14.00
2023-02-19T10:36:38.456Z,13.60
2023-02-19T10:39:39.020Z,14.30
2023-02-19T10:42:06.070Z,14.10
2023-02-19T10:44:41.719Z,12.70
2023-02-19T10:47:08.701Z,16.90
2023-02-19T10:49:40.941Z,13.50
2023-02-19T10:52:21.096Z,11.70
2023-02-19T10:54:53.707Z,8.60
2023-02-19T10:57:30.649Z,7.20
2023-02-19T11:00:02.349Z,6.60
2023-02-19T11:02:32.040Z,8.90
2023-02-19T11:05:05.878Z,7.20
2023-02-19T11:07:45.589Z,7.80
2023-02-19T11:10:42.517Z,3.60
2023-02-19T11:13:16.303Z,4.50
2023-02-19T11:15:45.916Z,5.10
2023-02-19T11:18:12.619Z,6.40
2023-02-19T11:20:50.409Z,6.10
2023-02-19T11:23:22.529Z,5.20
2023-02-19T11:25:50.328Z,5.90
2023-02-19T11:28:20.107Z,7.10
2023-02-19T11:30:47.879Z,7.20
2023-02-19T11:33:17.477Z,4.50
2023-02-19T11:35:44.986Z,7.40
2023-02-19T11:38:13.854Z,5.50
2023-02-19T11:41:08.725Z,5.00
2023-02-19T11:43:48.101Z,4.80
2023-02-19T11:46:40.047Z,8.40
2023-02-19T11:49:20.131Z,6.20
2023-02-19T11:52:08.780Z,4.50
2023-02-19T11:54:49.437Z,4.30
2023-02-19T11:57:35.109Z,6.70
2023-02-19T12:00:22.322Z,5.00
2023-02-19T12:03:18.567Z,4.20
2023-02-19T12:05:58.072Z,4.40
2023-02-19T12:08:46.618Z,4.70
2023-02-19T12:11:44.980Z,4.80
2023-02-19T12:14:39.844Z,5.80
2023-02-19T12:17:24.974Z,5.20
2023-02-19T12:20:10.636Z,5.50
2023-02-19T12:23:00.410Z,5.80
2023-02-19T12:25:30.392Z,4.10
2023-02-19T12:28:35.008Z,5.20
2023-02-19T12:31:35.316Z,4.20
2023-02-19T12:34:08.097Z,6.80
2023-02-19T12:36:50.916Z,4.60
2023-02-19T12:39:24.311Z,4.10
2023-02-19T12:42:07.790Z,4.80
2023-02-19T12:44:57.868Z,4.00
2023-02-19T12:47:30.280Z,5.60
2023-02-19T12:50:17.498Z,4.80
2023-02-19T12:52:47.442Z,4.60
2023-02-19T12:55:22.425Z,5.30
2023-02-19T12:57:49.968Z,7.20
2023-02-19T13:00:39.617Z,4.40
2023-02-19T13:03:35.433Z,2.60
2023-02-19T13:06:12.039Z,2.40
2023-02-19T13:08:57.855Z,2.40
2023-02-19T13:11:36.346Z,1.90
2023-02-19T13:14:08.930Z,3.00
2023-02-19T13:16:39.826Z,1.90
2023-02-19T13:19:06.823Z,1.90
2023-02-19T13:21:55.472Z,1.70
2023-02-19T13:24:28.206Z,2.00
2023-02-19T13:27:32.939Z,2.40
2023-02-19T13:30:54.204Z,3.40
2023-02-19T13:33:43.520Z,5.40
2023-02-19T13:36:16.846Z,2.70
2023-02-19T13:38:45.995Z,3.50
2023-02-19T13:41:21.877Z,5.00
2023-02-19T13:43:55.393Z,4.70
2023-02-19T13:46:22.738Z,3.10
2023-02-19T13:49:24.625Z,3.00
2023-02-19T13:51:59.278Z,3.00
2023-02-19T13:54:40.451Z,3.60
2023-02-19T13:57:27.954Z,2.90
2023-02-19T13:59:56.734Z,3.00
2023-02-19T14:02:26.135Z,2.70
2023-02-19T14:05:01.147Z,2.90
2023-02-19T14:07:27.947Z,3.70
2023-02-19T14:09:55.137Z,2.90
2023-02-19T14:12:24.815Z,2.70
2023-02-19T14:14:56.606Z,2.70
2023-02-19T14:17:23.416Z,2.50
2023-02-19T14:19:54.704Z,3.60
2023-02-19T14:22:52.907Z,2.60
2023-02-19T14:25:22.544Z,2.50
2023-02-19T14:27:50.615Z,1.90
2023-02-19T14:30:18.334Z,2.30
2023-02-19T14:32:50.938Z,2.10
2023-02-19T14:35:22.845Z,2.10
2023-02-19T14:37:51.099Z,2.70
2023-02-19T14:40:21.756Z,2.60
2023-02-19T14:42:50.063Z,2.90
2023-02-19T14:45:17.990Z,2.80
2023-02-19T14:47:45.094Z,3.30
2023-02-19T14:50:28.874Z,3.60
2023-02-19T14:52:58.944Z,2.80
2023-02-19T14:55:32.690Z,4.30
2023-02-19T14:58:02.153Z,2.80
2023-02-19T15:00:31.234Z,4.10
2023-02-19T15:03:00.396Z,4.00
2023-02-19T15:05:30.955Z,3.20
2023-02-19T15:08:00.439Z,2.80
2023-02-19T15:10:28.511Z,2.80
2023-02-19T15:12:57.508Z,2.30
2023-02-19T15:15:29.753Z,2.80
2023-02-19T15:17:57.885Z,3.60
2023-02-19T15:20:26.670Z,4.80
2023-02-19T15:22:58.818Z,6.30
2023-02-19T15:25:31.038Z,5.30
2023-02-19T15:28:23.561Z,4.70
2023-02-19T15:30:59.682Z,4.70
2023-02-19T15:33:27.962Z,3.90
2023-02-19T15:36:04.811Z,4.50
2023-02-19T15:38:33.221Z,4.70
2023-02-19T15:41:02.539Z,5.20
2023-02-19T15:43:40.202Z,2.90
2023-02-19T15:46:14.960Z,4.30
2023-02-19T15:48:46.601Z,4.30
2023-02-19T15:51:31.790Z,6.10
2023-02-19T15:54:07.993Z,4.90
2023-02-19T15:56:38.249Z,3.10
2023-02-19T15:59:13.700Z,5.40
2023-02-19T16:01:40.861Z,3.70
2023-02-19T16:04:16.438Z,4.30
2023-02-19T16:06:58.207Z,5.40
2023-02-19T16:09:32.707Z,4.10
2023-02-19T16:14:35.100Z,5.50
2023-02-19T16:17:10.760Z,5.10
2023-02-19T16:19:46.845Z,5.40
2023-02-19T16:22:16.721Z,3.40
2023-02-19T16:24:46.229Z,5.00
2023-02-19T16:27:14.329Z,3.20
2023-02-19T16:29:41.663Z,6.40
2023-02-19T16:32:16.656Z,5.50
2023-02-19T16:34:46.918Z,5.80
2023-02-19T16:37:35.687Z,2.80
2023-02-19T16:40:08.798Z,4.50
2023-02-19T16:42:58.472Z,4.80
2023-02-19T16:45:27.407Z,6.10
2023-02-19T16:47:54.358Z,5.00
2023-02-19T16:50:23.794Z,5.70
2023-02-19T16:52:59.142Z,5.70
2023-02-19T16:55:30.209Z,5.00
2023-02-19T16:57:57.113Z,6.40
2023-02-19T17:00:26.463Z,7.20
2023-02-19T17:02:55.619Z,8.50
2023-02-19T17:05:23.314Z,6.70
2023-02-19T17:07:50.452Z,7.30
2023-02-19T17:10:24.938Z,6.40
2023-02-19T17:12:55.595Z,5.90
2023-02-19T17:15:23.464Z,5.30
2023-02-19T17:17:50.310Z,5.00
2023-02-19T17:20:17.170Z,7.40
2023-02-19T17:22:44.329Z,6.90
2023-02-19T17:25:11.360Z,7.70
2023-02-19T17:27:38.134Z,6.20
2023-02-19T17:30:14.232Z,6.30
2023-02-19T17:32:41.041Z,6.40
2023-02-19T17:35:10.723Z,5.30
2023-02-19T17:37:37.575Z,8.30
2023-02-19T17:40:04.556Z,5.60
2023-02-19T17:42:31.306Z,5.80
2023-02-19T17:44:58.078Z,7.40
2023-02-19T17:47:24.865Z,5.80
2023-02-19T17:49:51.797Z,6.40
2023-02-19T17:52:19.577Z,5.70
2023-02-19T17:54:46.726Z,7.40
2023-02-19T17:57:13.578Z,5.20
2023-02-19T17:59:40.521Z,6.00
2023-02-19T18:02:07.784Z,5.20
2023-02-19T18:04:36.459Z,5.30
2023-02-19T18:07:03.831Z,5.70
2023-02-19T18:09:30.622Z,6.20
2023-02-19T18:11:57.530Z,8.20
2023-02-19T18:14:24.588Z,9.70
2023-02-19T18:16:51.690Z,7.30
2023-02-19T18:19:18.893Z,5.10
2023-02-19T18:21:45.737Z,8.10
2023-02-19T18:24:12.482Z,6.70
2023-02-19T18:26:41.885Z,5.40
2023-02-19T18:29:08.646Z,5.40
2023-02-19T18:31:37.767Z,8.40
2023-02-19T18:34:05.899Z,6.60
2023-02-19T18:36:32.952Z,6.80
2023-02-19T18:38:59.900Z,5.20
2023-02-19T18:41:29.731Z,6.00
2023-02-19T18:43:56.598Z,6.70
2023-02-19T18:46:26.214Z,5.70
2023-02-19T18:48:52.994Z,6.10
2023-02-19T18:51:23.579Z,5.10
2023-02-19T18:53:50.919Z,7.70
2023-02-19T18:56:17.864Z,4.60
2023-02-19T18:58:44.625Z,5.00
2023-02-19T19:01:13.937Z,5.40
2023-02-19T19:03:41.079Z,10.30
2023-02-19T19:06:07.909Z,6.50
2023-02-19T19:08:34.863Z,5.60
2023-02-19T19:11:01.619Z,5.40
2023-02-19T19:13:28.409Z,5.50
2023-02-19T19:15:55.245Z,4.50
2023-02-19T19:18:22.680Z,6.10
2023-02-19T19:20:49.368Z,5.80
2023-02-19T19:23:16.166Z,5.30
2023-02-19T19:25:42.997Z,5.10
2023-02-19T19:28:09.851Z,4.10
2023-02-19T19:30:36.586Z,4.70
2023-02-19T19:33:03.700Z,4.50
2023-02-19T19:35:30.487Z,6.30
2023-02-19T19:37:57.269Z,4.90
2023-02-19T19:40:24.392Z,4.70
2023-02-19T19:42:52.515Z,7.10
2023-02-19T19:45:19.294Z,5.60
2023-02-19T19:47:46.721Z,4.10
2023-02-19T19:50:16.031Z,4.10
2023-02-19T19:52:42.865Z,3.70
2023-02-19T19:55:12.017Z,2.90
2023-02-19T19:57:40.849Z,5.70
2023-02-19T20:00:09.397Z,5.70
2023-02-19T20:02:36.368Z,4.50
2023-02-19T20:05:03.212Z,3.90
2023-02-19T20:07:29.943Z,3.30
2023-02-19T20:09:57.088Z,4.20
2023-02-19T20:12:23.844Z,3.50
2023-02-19T20:14:50.631Z,5.60
2023-02-19T20:17:17.575Z,5.50
2023-02-19T20:19:47.552Z,6.30
2023-02-19T20:22:14.319Z,8.00
2023-02-19T20:24:41.155Z,5.10
2023-02-19T20:27:08.213Z,4.90
2023-02-19T20:29:35.248Z,5.20
2023-02-19T20:32:03.950Z,4.40
2023-02-19T20:34:31.633Z,4.20
2023-02-19T20:36:58.973Z,4.40
2023-02-19T20:39:29.041Z,4.50
2023-02-19T20:41:57.516Z,5.50
2023-02-19T20:44:26.455Z,7.30
2023-02-19T20:46:57.112Z,4.00
2023-02-19T20:49:27.846Z,4.00
2023-02-19T20:51:58.166Z,5.10
2023-02-19T20:54:28.582Z,5.90
2023-02-19T20:56:58.125Z,5.60
2023-02-19T20:59:30.489Z,7.20
2023-02-19T21:01:58.678Z,5.90
2023-02-19T21:04:25.903Z,5.90
2023-02-19T21:06:52.743Z,9.20
2023-02-19T21:09:23.172Z,6.80
2023-02-19T21:11:50.742Z,8.20
2023-02-19T21:14:18.517Z,7.60
2023-02-19T21:16:45.672Z,8.20
2023-02-19T21:19:12.610Z,7.80
2023-02-19T21:21:40.494Z,8.30
2023-02-19T21:24:10.776Z,8.10
2023-02-19T21:26:38.986Z,6.80
2023-02-19T21:29:07.416Z,9.40
2023-02-19T21:31:42.623Z,7.60
2023-02-19T21:34:12.003Z,10.70
2023-02-19T21:36:39.066Z,8.90
2023-02-19T21:39:07.158Z,8.00
2023-02-19T21:41:34.100Z,7.50
2023-02-19T21:44:01.351Z,8.70
2023-02-19T21:46:28.143Z,7.20
2023-02-19T21:48:57.804Z,6.60
2023-02-19T21:51:31.135Z,9.20
2023-02-19T21:53:58.763Z,8.40
2023-02-19T21:56:30.174Z,7.40
2023-02-19T21:58:57.067Z,8.10
2023-02-19T22:01:29.527Z,6.20
2023-02-19T22:03:56.580Z,6.20
2023-02-19T22:06:24.929Z,9.80
2023-02-19T22:08:52.032Z,8.60
2023-02-19T22:11:19.065Z,6.70
2023-02-19T22:13:46.117Z,7.60
2023-02-19T22:16:13.223Z,6.90
2023-02-19T22:18:47.217Z,7.90
2023-02-19T22:21:14.519Z,7.60
2023-02-19T22:23:46.905Z,6.00
2023-02-19T22:26:24.939Z,6.00
2023-02-19T22:28:52.155Z,7.00
2023-02-19T22:31:21.087Z,6.50
2023-02-19T22:33:48.284Z,7.20
2023-02-19T22:36:23.901Z,6.10
2023-02-19T22:38:51.018Z,7.20
2023-02-19T22:41:18.793Z,7.50
2023-02-19T22:43:46.059Z,9.20
2023-02-19T22:46:20.818Z,7.70
2023-02-19T22:48:50.805Z,7.20
2023-02-19T22:51:20.694Z,6.20
2023-02-19T22:53:55.152Z,8.10
2023-02-19T22:56:24.427Z,6.40
2023-02-19T22:58:51.850Z,6.30
2023-02-19T23:01:19.245Z,8.60
2023-02-19T23:03:57.321Z,7.40
2023-02-19T23:06:26.656Z,6.80
2023-02-19T23:08:54.938Z,10.70
2023-02-19T23:11:28.349Z,5.90
2023-02-19T23:13:58.375Z,9.30
2023-02-19T23:16:25.515Z,7.40
2023-02-19T23:18:52.565Z,10.70
2023-02-19T23:21:20.522Z,7.60
2023-02-19T23:23:48.307Z,7.40
2023-02-19T23:26:15.992Z,7.50
2023-02-19T23:28:46.045Z,9.90
2023-02-19T23:31:13.673Z,8.30
2023-02-19T23:33:41.223Z,8.90
2023-02-19T23:36:08.697Z,11.10
2023-02-19T23:38:35.630Z,11.80
2023-02-19T23:41:02.569Z,11.90
2023-02-19T23:43:32.597Z,9.60
2023-02-19T23:45:59.464Z,10.80
2023-02-19T23:48:26.450Z,10.90
2023-02-19T23:50:53.337Z,12.40
2023-02-19T23:53:20.077Z,12.00
2023-02-19T23:55:47.030Z,11.00
2023-02-19T23:58:13.880Z,11.10
